Time,TemperatureF,DewpointF,PressureIn,WindDirection,WindDirectionDegrees,WindSpeedMPH,WindSpeedGustMPH,Humidity,HourlyPrecipIn,Conditions,Clouds,dailyrainin,SoftwareType,DateUTC
2013-03-24 00:03:00,19.4,3.8,21.11,NW,314,12.8,17.0,50,0.00,,---,0.00,VWS V14.01,2013-03-24 06:03:00,
2013-03-24 00:09:00,19.4,4.2,21.11,NW,321,15.0,15.9,51,0.00,,---,0.00,VWS V14.01,2013-03-24 06:09:00,
2013-03-24 00:14:00,19.4,4.2,21.11,NW,322,15.9,15.9,51,0.00,,---,0.00,VWS V14.01,2013-03-24 06:14:00,
2013-03-24 00:20:00,19.4,4.2,21.11,NW,314,12.8,15.4,51,0.00,,---,0.00,VWS V14.01,2013-03-24 06:20:00,
2013-03-24 00:26:00,19.2,4.1,21.11,NW,313,12.8,12.8,51,0.00,,---,0.00,VWS V14.01,2013-03-24 06:26:00,
2013-03-24 00:32:00,19.2,4.5,21.11,NW,316,15.4,15.4,52,0.00,,---,0.00,VWS V14.01,2013-03-24 06:32:00,
2013-03-24 00:37:00,19.2,4.5,21.11,NW,311,15.0,15.4,52,0.00,,---,0.00,VWS V14.01,2013-03-24 06:37:00,
2013-03-24 00:43:00,19.2,4.5,21.11,NW,311,15.9,15.9,52,0.00,,---,0.00,VWS V14.01,2013-03-24 06:43:00,
2013-03-24 00:48:00,19.2,4.5,21.11,NW,304,13.2,17.0,52,0.00,,---,0.00,VWS V14.01,2013-03-24 06:48:00,
2013-03-24 00:54:00,19.0,4.3,21.11,NW,310,15.9,17.4,52,0.00,,---,0.00,VWS V14.01,2013-03-24 06:54:00,
2013-03-24 01:00:00,19.0,3.9,21.11,NW,324,17.4,17.4,51,0.00,,---,0.00,VWS V14.01,2013-03-24 07:00:00,
2013-03-24 01:06:00,18.9,3.7,21.11,NW,314,13.2,15.4,51,0.00,,---,0.00,VWS V14.01,2013-03-24 07:06:00,
2013-03-24 01:12:00,18.7,3.1,21.11,NW,324,14.1,14.1,50,0.00,,---,0.00,VWS V14.01,2013-03-24 07:12:00,
2013-03-24 01:18:00,18.5,3.0,21.11,NW,320,19.2,19.2,50,0.00,,---,0.00,VWS V14.01,2013-03-24 07:18:00,
2013-03-24 01:23:00,18.3,2.8,21.11,NW,320,16.8,17.4,50,0.00,,---,0.00,VWS V14.01,2013-03-24 07:23:00,
2013-03-24 01:28:00,18.3,2.8,21.11,NW,315,15.9,15.9,50,0.00,,---,0.00,VWS V14.01,2013-03-24 07:28:00,
2013-03-24 01:33:00,18.3,2.8,21.11,NW,319,18.8,18.8,50,0.00,,---,0.00,VWS V14.01,2013-03-24 07:33:00,
2013-03-24 01:39:00,18.3,3.2,21.11,NW,314,12.3,17.9,51,0.00,,---,0.00,VWS V14.01,2013-03-24 07:39:00,
2013-03-24 01:44:00,18.1,2.6,21.11,NW,320,17.0,17.0,50,0.00,,---,0.00,VWS V14.01,2013-03-24 07:44:00,
2013-03-24 01:50:00,17.8,2.3,21.11,NNW,330,15.0,15.0,50,0.00,,---,0.00,VWS V14.01,2013-03-24 07:50:00,
2013-03-24 01:55:00,17.6,2.6,21.11,NW,326,15.0,15.0,51,0.00,,---,0.00,VWS V14.01,2013-03-24 07:55:00,
2013-03-24 02:02:00,17.4,2.4,21.11,NW,316,15.4,16.8,51,0.00,,---,0.00,VWS V14.01,2013-03-24 08:02:00,
2013-03-24 02:08:00,17.1,1.6,21.11,NW,314,14.5,15.4,50,0.00,,---,0.00,VWS V14.01,2013-03-24 08:08:00,
2013-03-24 02:14:00,16.7,1.3,21.11,NW,317,14.1,14.1,50,0.00,,---,0.00,VWS V14.01,2013-03-24 08:14:00,
2013-03-24 02:19:00,16.5,1.1,21.11,NW,313,10.5,10.5,50,0.00,,---,0.00,VWS V14.01,2013-03-24 08:19:00,
2013-03-24 02:24:00,16.2,0.8,21.11,NW,315,15.0,15.0,50,0.00,,---,0.00,VWS V14.01,2013-03-24 08:24:00,
2013-03-24 02:29:00,16.0,1.1,21.11,NW,311,15.4,15.4,51,0.00,,---,0.00,VWS V14.01,2013-03-24 08:29:00,
2013-03-24 02:35:00,15.8,0.9,21.11,NW,314,12.8,12.8,51,0.00,,---,0.00,VWS V14.01,2013-03-24 08:35:00,
2013-03-24 02:40:00,15.8,1.3,21.11,WNW,301,11.0,13.6,52,0.00,,---,0.00,VWS V14.01,2013-03-24 08:40:00,
2013-03-24 02:46:00,15.4,1.0,21.11,NW,310,11.0,11.9,52,0.00,,---,0.00,VWS V14.01,2013-03-24 08:46:00,
2013-03-24 02:52:00,15.4,1.0,21.11,NW,312,12.8,13.2,52,0.00,,---,0.00,VWS V14.01,2013-03-24 08:52:00,
2013-03-24 02:57:00,15.3,0.8,21.11,NW,318,11.0,11.0,52,0.00,,---,0.00,VWS V14.01,2013-03-24 08:57:00,
2013-03-24 03:03:00,15.1,0.6,21.11,NW,315,10.5,10.5,52,0.00,,---,0.00,VWS V14.01,2013-03-24 09:03:00,
2013-03-24 03:08:00,14.7,0.3,21.11,NW,315,8.1,8.1,52,0.00,,---,0.00,VWS V14.01,2013-03-24 09:08:00,
2013-03-24 03:14:00,14.4,-0.4,21.11,NW,310,8.7,8.7,51,0.00,,---,0.00,VWS V14.01,2013-03-24 09:14:00,
2013-03-24 03:20:00,13.8,-0.5,21.11,WNW,299,6.3,7.6,52,0.00,,---,0.00,VWS V14.01,2013-03-24 09:20:00,
2013-03-24 03:26:00,13.6,-0.7,21.11,WNW,297,8.1,8.1,52,0.00,,---,0.00,VWS V14.01,2013-03-24 09:26:00,
2013-03-24 03:32:00,12.9,-1.4,21.11,WNW,302,7.6,7.6,52,0.00,,---,0.00,VWS V14.01,2013-03-24 09:32:00,
2013-03-24 03:38:00,12.6,-1.7,21.11,WNW,302,8.3,8.7,52,0.00,,---,0.00,VWS V14.01,2013-03-24 09:38:00,
2013-03-24 03:43:00,12.6,-1.7,21.11,WNW,297,8.7,8.7,52,0.00,,---,0.00,VWS V14.01,2013-03-24 09:43:00,
2013-03-24 03:49:00,12.6,-1.7,21.11,WNW,303,11.0,11.0,52,0.00,,---,0.00,VWS V14.01,2013-03-24 09:49:00,
2013-03-24 03:54:00,12.6,-1.7,21.11,WNW,299,8.7,8.7,52,0.00,,---,0.00,VWS V14.01,2013-03-24 09:54:00,
2013-03-24 04:00:00,12.7,-1.5,21.11,WNW,302,10.5,11.0,52,0.00,,---,0.00,VWS V14.01,2013-03-24 10:00:00,
2013-03-24 04:05:00,12.7,-1.5,21.11,WNW,302,11.0,11.0,52,0.00,,---,0.00,VWS V14.01,2013-03-24 10:05:00,
2013-03-24 04:11:00,12.9,-1.4,21.11,NW,308,11.0,11.0,52,0.00,,---,0.00,VWS V14.01,2013-03-24 10:11:00,
2013-03-24 04:17:00,12.9,-1.4,21.11,WNW,302,8.7,9.6,52,0.00,,---,0.00,VWS V14.01,2013-03-24 10:17:00,
2013-03-24 04:23:00,12.9,-1.4,21.11,NW,304,10.1,10.1,52,0.00,,---,0.00,VWS V14.01,2013-03-24 10:23:00,
2013-03-24 04:28:00,12.9,-1.4,21.11,WNW,303,10.1,12.8,52,0.00,,---,0.00,VWS V14.01,2013-03-24 10:28:00,
2013-03-24 04:34:00,13.3,-1.0,21.11,WNW,297,12.8,12.8,52,0.00,,---,0.00,VWS V14.01,2013-03-24 10:34:00,
2013-03-24 04:39:00,13.3,-1.0,21.11,WNW,299,8.3,13.2,52,0.00,,---,0.00,VWS V14.01,2013-03-24 10:39:00,
2013-03-24 04:44:00,13.3,-1.0,21.11,NW,304,11.0,12.3,52,0.00,,---,0.00,VWS V14.01,2013-03-24 10:44:00,
2013-03-24 04:49:00,12.9,-1.4,21.11,WNW,300,10.5,12.3,52,0.00,,---,0.00,VWS V14.01,2013-03-24 10:49:00,
2013-03-24 04:55:00,12.4,-1.9,21.11,WNW,292,10.5,10.5,52,0.00,,---,0.00,VWS V14.01,2013-03-24 10:55:00,
2013-03-24 05:00:00,12.2,-2.0,21.11,WNW,302,10.1,11.0,52,0.00,,---,0.00,VWS V14.01,2013-03-24 11:00:00,
2013-03-24 05:06:00,12.2,-2.0,21.11,West,281,11.0,12.8,52,0.00,,---,0.00,VWS V14.01,2013-03-24 11:06:00,
2013-03-24 05:12:00,12.2,-2.0,21.11,WNW,303,8.3,10.1,52,0.00,,---,0.00,VWS V14.01,2013-03-24 11:12:00,
2013-03-24 05:17:00,11.8,-2.4,21.11,WNW,297,11.0,11.0,52,0.00,,---,0.00,VWS V14.01,2013-03-24 11:17:00,
2013-03-24 05:23:00,11.7,-2.5,21.11,NW,311,8.1,8.3,52,0.00,,---,0.00,VWS V14.01,2013-03-24 11:23:00,
2013-03-24 05:28:00,11.3,-2.9,21.11,NW,305,7.6,9.2,52,0.00,,---,0.00,VWS V14.01,2013-03-24 11:28:00,
2013-03-24 05:33:00,11.1,-3.1,21.11,WNW,303,8.3,8.7,52,0.00,,---,0.00,VWS V14.01,2013-03-24 11:33:00,
2013-03-24 05:39:00,10.9,-3.2,21.11,NW,305,10.1,11.0,52,0.00,,---,0.00,VWS V14.01,2013-03-24 11:39:00,
2013-03-24 05:45:00,10.6,-3.6,21.11,NW,312,8.3,10.5,52,0.00,,---,0.00,VWS V14.01,2013-03-24 11:45:00,
2013-03-24 05:50:00,10.2,-3.9,21.11,NW,307,5.8,8.1,52,0.00,,---,0.00,VWS V14.01,2013-03-24 11:50:00,
2013-03-24 05:55:00,9.7,-4.4,21.11,WNW,295,6.3,7.6,52,0.00,,---,0.00,VWS V14.01,2013-03-24 11:55:00,
2013-03-24 06:02:00,8.8,-5.2,21.11,WNW,301,8.1,8.3,52,0.00,,---,0.00,VWS V14.01,2013-03-24 12:02:00,
2013-03-24 06:08:00,8.6,-5.4,21.11,NW,306,8.3,8.3,52,0.00,,---,0.00,VWS V14.01,2013-03-24 12:08:00,
2013-03-24 06:13:00,8.4,-5.6,21.11,NW,306,8.1,8.1,52,0.00,,---,0.00,VWS V14.01,2013-03-24 12:13:00,
2013-03-24 06:19:00,8.1,-5.9,21.11,NW,311,8.7,9.6,52,0.00,,---,0.00,VWS V14.01,2013-03-24 12:19:00,
2013-03-24 06:24:00,7.9,-6.1,21.11,NW,309,5.8,8.1,52,0.00,,---,0.00,VWS V14.01,2013-03-24 12:24:00,
2013-03-24 06:30:00,7.9,-6.1,21.11,NW,304,6.3,6.3,52,0.00,,---,0.00,VWS V14.01,2013-03-24 12:30:00,
2013-03-24 06:35:00,7.7,-6.2,21.11,NW,305,6.3,6.3,52,0.00,,---,0.00,VWS V14.01,2013-03-24 12:35:00,
2013-03-24 06:41:00,7.5,-6.4,21.11,WNW,303,6.3,7.6,52,0.00,,---,0.00,VWS V14.01,2013-03-24 12:41:00,
2013-03-24 06:47:00,7.3,-6.6,21.11,WNW,303,6.3,6.3,52,0.00,,---,0.00,VWS V14.01,2013-03-24 12:47:00,
2013-03-24 06:52:00,7.3,-6.6,21.11,NW,305,6.7,6.7,52,0.00,,---,0.00,VWS V14.01,2013-03-24 12:52:00,
2013-03-24 06:58:00,7.7,-6.2,21.11,NW,304,5.8,5.8,52,0.00,,---,0.00,VWS V14.01,2013-03-24 12:58:00,
2013-03-24 07:04:00,8.2,-5.7,21.11,WNW,301,7.6,7.6,52,0.00,,---,0.00,VWS V14.01,2013-03-24 13:04:00,
2013-03-24 07:09:00,8.6,-5.4,21.11,WNW,303,8.1,8.1,52,0.00,,---,0.00,VWS V14.01,2013-03-24 13:09:00,
2013-03-24 07:15:00,8.8,-5.2,21.11,WNW,300,7.6,7.6,52,0.00,,---,0.00,VWS V14.01,2013-03-24 13:15:00,
2013-03-24 07:20:00,9.1,-4.9,21.11,WNW,289,6.3,6.3,52,0.00,,---,0.00,VWS V14.01,2013-03-24 13:20:00,
2013-03-24 07:26:00,9.1,-4.9,21.11,WNW,296,5.8,6.3,52,0.00,,---,0.00,VWS V14.01,2013-03-24 13:26:00,
2013-03-24 07:32:00,9.3,-4.7,21.11,WNW,303,6.3,6.3,52,0.00,,---,0.00,VWS V14.01,2013-03-24 13:32:00,
2013-03-24 07:37:00,9.7,-4.4,21.11,WNW,301,7.6,7.6,52,0.00,,---,0.00,VWS V14.01,2013-03-24 13:37:00,
2013-03-24 07:43:00,10.0,-4.1,21.11,WNW,299,5.4,5.8,52,0.00,,---,0.00,VWS V14.01,2013-03-24 13:43:00,
2013-03-24 07:48:00,10.4,-3.7,21.11,NW,305,8.3,8.7,52,0.00,,---,0.00,VWS V14.01,2013-03-24 13:48:00,
2013-03-24 07:53:00,10.9,-3.2,21.11,NW,307,6.7,6.7,52,0.00,,---,0.00,VWS V14.01,2013-03-24 13:53:00,
2013-03-24 07:58:00,11.3,-2.9,21.11,WNW,302,5.8,6.3,52,0.00,,---,0.00,VWS V14.01,2013-03-24 13:58:00,
2013-03-24 08:04:00,12.0,-2.2,21.11,NW,307,6.3,6.3,52,0.00,,---,0.00,VWS V14.01,2013-03-24 14:04:00,
2013-03-24 08:09:00,12.4,-1.9,21.11,NW,308,5.4,5.8,52,0.00,,---,0.00,VWS V14.01,2013-03-24 14:09:00,
2013-03-24 08:15:00,12.9,-1.4,21.11,WNW,298,5.4,5.8,52,0.00,,---,0.00,VWS V14.01,2013-03-24 14:15:00,
2013-03-24 08:22:00,13.3,-1.0,21.11,WNW,288,8.1,8.1,52,0.00,,---,0.00,VWS V14.01,2013-03-24 14:22:00,
2013-03-24 08:28:00,13.3,-1.0,21.11,WNW,289,8.3,8.3,52,0.00,,---,0.00,VWS V14.01,2013-03-24 14:28:00,
2013-03-24 08:33:00,13.5,-0.9,21.11,WNW,288,7.2,8.3,52,0.00,,---,0.00,VWS V14.01,2013-03-24 14:33:00,
2013-03-24 08:38:00,13.5,-0.9,21.11,WNW,295,7.6,9.2,52,0.00,,---,0.00,VWS V14.01,2013-03-24 14:38:00,
2013-03-24 08:43:00,13.8,-0.5,21.11,WNW,289,7.6,8.1,52,0.00,,---,0.00,VWS V14.01,2013-03-24 14:43:00,
2013-03-24 08:49:00,14.2,0.6,21.11,WNW,296,5.4,5.8,54,0.00,,---,0.00,VWS V14.01,2013-03-24 14:49:00,
2013-03-24 08:54:00,14.4,0.8,21.11,WSW,254,5.8,5.8,54,0.00,,---,0.00,VWS V14.01,2013-03-24 14:54:00,
2013-03-24 09:00:00,14.5,0.5,21.11,West,266,5.8,5.8,53,0.00,,---,0.00,VWS V14.01,2013-03-24 15:00:00,
2013-03-24 09:05:00,14.5,0.5,21.11,WSW,254,5.8,5.8,53,0.00,,---,0.00,VWS V14.01,2013-03-24 15:05:00,
2013-03-24 09:12:00,14.7,0.7,21.11,West,273,6.7,7.6,53,0.00,,---,0.00,VWS V14.01,2013-03-24 15:12:00,
2013-03-24 09:18:00,15.1,1.0,21.11,WNW,290,8.7,10.1,53,0.00,,---,0.00,VWS V14.01,2013-03-24 15:18:00,
2013-03-24 09:24:00,15.4,1.0,21.11,WNW,290,7.6,10.1,52,0.00,,---,0.00,VWS V14.01,2013-03-24 15:24:00,
2013-03-24 09:29:00,15.6,1.1,21.11,WNW,300,9.6,9.6,52,0.00,,---,0.00,VWS V14.01,2013-03-24 15:29:00,
2013-03-24 09:35:00,16.2,1.6,21.11,West,274,8.1,8.1,52,0.00,,---,0.00,VWS V14.01,2013-03-24 15:35:00,
2013-03-24 09:40:00,16.7,2.1,21.11,West,281,5.8,8.7,52,0.00,,---,0.00,VWS V14.01,2013-03-24 15:40:00,
2013-03-24 09:45:00,16.9,2.3,21.11,West,279,8.7,8.7,52,0.00,,---,0.00,VWS V14.01,2013-03-24 15:45:00,
2013-03-24 09:50:00,17.4,2.8,21.11,West,260,7.6,7.6,52,0.00,,---,0.00,VWS V14.01,2013-03-24 15:50:00,
2013-03-24 09:56:00,18.1,3.5,21.11,WSW,253,8.7,8.7,52,0.00,,---,0.00,VWS V14.01,2013-03-24 15:56:00,
2013-03-24 10:02:00,18.9,4.2,21.11,WSW,248,8.7,8.7,52,0.00,,---,0.00,VWS V14.01,2013-03-24 16:02:00,
2013-03-24 10:07:00,19.2,4.5,21.11,West,274,8.7,8.7,52,0.00,,---,0.00,VWS V14.01,2013-03-24 16:07:00,
2013-03-24 10:13:00,19.6,4.4,21.11,West,273,8.7,10.1,51,0.00,,---,0.00,VWS V14.01,2013-03-24 16:13:00,
2013-03-24 10:18:00,19.6,4.4,21.11,West,270,8.3,8.3,51,0.00,,---,0.00,VWS V14.01,2013-03-24 16:18:00,
2013-03-24 10:24:00,19.8,4.6,21.11,West,261,8.3,11.0,51,0.00,,---,0.00,VWS V14.01,2013-03-24 16:24:00,
2013-03-24 10:29:00,19.9,4.3,21.11,West,271,6.3,9.6,50,0.00,,---,0.00,VWS V14.01,2013-03-24 16:29:00,
2013-03-24 10:35:00,19.9,3.9,21.11,WSW,254,10.5,11.0,49,0.00,,---,0.00,VWS V14.01,2013-03-24 16:35:00,
2013-03-24 10:41:00,19.9,3.9,21.11,West,270,5.8,5.8,49,0.00,,---,0.00,VWS V14.01,2013-03-24 16:41:00,
2013-03-24 10:47:00,20.1,4.0,21.11,WSW,253,10.5,10.5,49,0.00,,---,0.00,VWS V14.01,2013-03-24 16:47:00,
2013-03-24 10:53:00,20.1,3.6,21.11,West,267,8.7,8.7,48,0.00,,---,0.00,VWS V14.01,2013-03-24 16:53:00,
2013-03-24 10:59:00,20.3,3.8,21.11,WSW,255,8.1,8.1,48,0.00,,---,0.00,VWS V14.01,2013-03-24 16:59:00,
2013-03-24 11:04:00,20.5,3.9,21.11,WNW,291,8.1,8.1,48,0.00,,---,0.00,VWS V14.01,2013-03-24 17:04:00,
2013-03-24 11:10:00,21.0,4.9,21.11,West,271,10.1,10.1,49,0.00,,---,0.00,VWS V14.01,2013-03-24 17:10:00,
2013-03-24 11:15:00,21.4,4.8,21.11,West,262,7.6,7.6,48,0.00,,---,0.00,VWS V14.01,2013-03-24 17:15:00,
2013-03-24 11:21:00,21.7,5.1,21.11,West,280,10.5,10.5,48,0.00,,---,0.00,VWS V14.01,2013-03-24 17:21:00,
2013-03-24 11:26:00,21.9,4.8,21.11,WNW,287,11.0,11.0,47,0.00,,---,0.00,VWS V14.01,2013-03-24 17:26:00,
2013-03-24 11:32:00,21.9,4.8,21.11,WNW,290,10.5,11.0,47,0.00,,---,0.00,VWS V14.01,2013-03-24 17:32:00,
2013-03-24 11:38:00,22.1,5.0,21.11,WNW,289,12.8,12.8,47,0.00,,---,0.00,VWS V14.01,2013-03-24 17:38:00,
2013-03-24 11:43:00,22.3,5.1,21.11,NW,304,9.2,9.2,47,0.00,,---,0.00,VWS V14.01,2013-03-24 17:43:00,
2013-03-24 11:48:00,22.6,5.5,21.11,WNW,303,15.0,15.0,47,0.00,,---,0.00,VWS V14.01,2013-03-24 17:48:00,
2013-03-24 11:54:00,22.8,5.6,21.11,NW,305,10.5,10.5,47,0.00,,---,0.00,VWS V14.01,2013-03-24 17:54:00,
2013-03-24 11:59:00,23.0,5.8,21.11,WNW,296,13.2,13.2,47,0.00,,---,0.00,VWS V14.01,2013-03-24 17:59:00,
2013-03-24 12:04:00,23.2,5.5,21.11,WNW,299,8.1,12.3,46,0.00,,---,0.00,VWS V14.01,2013-03-24 18:04:00,
2013-03-24 12:09:00,23.4,5.7,21.11,WNW,295,13.2,13.2,46,0.00,,---,0.00,VWS V14.01,2013-03-24 18:09:00,
2013-03-24 12:15:00,23.7,6.0,21.11,NW,318,13.2,13.2,46,0.00,,---,0.00,VWS V14.01,2013-03-24 18:15:00,
2013-03-24 12:20:00,23.9,6.1,21.11,NW,313,13.2,13.2,46,0.00,,---,0.00,VWS V14.01,2013-03-24 18:20:00,
2013-03-24 12:25:00,23.9,6.1,21.11,NW,308,12.8,12.8,46,0.00,,---,0.00,VWS V14.01,2013-03-24 18:25:00,
2013-03-24 12:31:00,24.6,6.8,21.11,NW,316,13.2,17.9,46,0.00,,---,0.00,VWS V14.01,2013-03-24 18:31:00,
2013-03-24 12:37:00,24.8,7.0,21.11,NW,312,17.4,17.4,46,0.00,,---,0.00,VWS V14.01,2013-03-24 18:37:00,
2013-03-24 12:42:00,25.3,7.0,21.11,NW,309,17.4,17.4,45,0.00,,---,0.00,VWS V14.01,2013-03-24 18:42:00,
2013-03-24 12:48:00,25.7,6.8,21.11,NW,313,15.4,17.4,44,0.00,,---,0.00,VWS V14.01,2013-03-24 18:48:00,
2013-03-24 12:54:00,26.1,7.2,21.11,WNW,299,13.2,16.3,44,0.00,,---,0.00,VWS V14.01,2013-03-24 18:54:00,
2013-03-24 13:00:00,26.1,6.6,21.11,NW,326,16.8,16.8,43,0.00,,---,0.00,VWS V14.01,2013-03-24 19:00:00,
2013-03-24 13:06:00,26.2,6.8,21.11,NW,311,13.2,15.4,43,0.00,,---,0.00,VWS V14.01,2013-03-24 19:06:00,
2013-03-24 13:12:00,26.6,6.6,21.11,WNW,302,17.0,17.0,42,0.00,,---,0.00,VWS V14.01,2013-03-24 19:12:00,
2013-03-24 13:18:00,26.8,6.8,21.11,NNW,328,13.2,15.0,42,0.00,,---,0.00,VWS V14.01,2013-03-24 19:18:00,
2013-03-24 13:24:00,27.0,6.9,21.11,NW,318,10.5,10.5,42,0.00,,---,0.00,VWS V14.01,2013-03-24 19:24:00,
2013-03-24 13:29:00,27.0,6.9,21.11,NW,320,8.1,10.5,42,0.00,,---,0.00,VWS V14.01,2013-03-24 19:29:00,
2013-03-24 13:34:00,27.0,6.9,21.11,NW,307,12.8,13.2,42,0.00,,---,0.00,VWS V14.01,2013-03-24 19:34:00,
2013-03-24 13:39:00,27.3,7.3,21.11,NW,314,10.5,10.5,42,0.00,,---,0.00,VWS V14.01,2013-03-24 19:39:00,
2013-03-24 13:45:00,27.9,7.8,21.11,WNW,302,8.7,8.7,42,0.00,,---,0.00,VWS V14.01,2013-03-24 19:45:00,
2013-03-24 13:50:00,27.9,7.2,21.11,WNW,295,8.7,8.7,41,0.00,,---,0.00,VWS V14.01,2013-03-24 19:50:00,
2013-03-24 13:57:00,28.4,7.7,21.11,WNW,296,11.0,11.0,41,0.00,,---,0.00,VWS V14.01,2013-03-24 19:57:00,
2013-03-24 14:02:00,28.9,8.2,21.11,WNW,287,10.5,10.5,41,0.00,,---,0.00,VWS V14.01,2013-03-24 20:02:00,
2013-03-24 14:08:00,29.3,8.5,21.11,WNW,288,12.8,12.8,41,0.00,,---,0.00,VWS V14.01,2013-03-24 20:08:00,
2013-03-24 14:13:00,29.3,8.5,21.11,WNW,291,13.2,15.4,41,0.00,,---,0.00,VWS V14.01,2013-03-24 20:13:00,
2013-03-24 14:19:00,28.8,8.0,21.11,WNW,287,19.7,19.7,41,0.00,,---,0.00,VWS V14.01,2013-03-24 20:19:00,
2013-03-24 14:24:00,28.9,8.2,21.11,NW,313,13.6,15.4,41,0.00,,---,0.00,VWS V14.01,2013-03-24 20:24:00,
2013-03-24 14:30:00,28.8,8.0,21.11,WNW,299,15.9,15.9,41,0.00,,---,0.00,VWS V14.01,2013-03-24 20:30:00,
2013-03-24 14:35:00,28.9,8.2,21.11,WNW,298,15.0,15.0,41,0.00,,---,0.00,VWS V14.01,2013-03-24 20:35:00,
2013-03-24 14:42:00,28.9,8.2,21.11,NW,304,13.2,13.2,41,0.00,,---,0.00,VWS V14.01,2013-03-24 20:42:00,
2013-03-24 14:48:00,29.1,8.4,21.11,WNW,300,14.1,14.1,41,0.00,,---,0.00,VWS V14.01,2013-03-24 20:48:00,
2013-03-24 14:54:00,30.2,8.2,21.11,WNW,288,17.4,17.4,39,0.00,,---,0.00,VWS V14.01,2013-03-24 20:54:00,
2013-03-24 14:59:00,30.0,8.1,21.11,NW,307,19.7,19.7,39,0.00,,---,0.00,VWS V14.01,2013-03-24 20:59:00,
2013-03-24 15:04:00,29.8,7.3,21.11,NW,306,17.0,17.0,38,0.00,,---,0.00,VWS V14.01,2013-03-24 21:04:00,
2013-03-24 15:09:00,29.8,6.8,21.11,NW,320,20.1,20.1,37,0.00,,---,0.00,VWS V14.01,2013-03-24 21:09:00,
2013-03-24 15:15:00,30.0,7.5,21.11,NW,309,20.1,20.1,38,0.00,,---,0.00,VWS V14.01,2013-03-24 21:15:00,
2013-03-24 15:21:00,29.8,6.8,21.11,WNW,297,15.0,15.0,37,0.00,,---,0.00,VWS V14.01,2013-03-24 21:21:00,
2013-03-24 15:27:00,30.0,7.5,21.11,NW,314,14.5,19.2,38,0.00,,---,0.00,VWS V14.01,2013-03-24 21:27:00,
2013-03-24 15:33:00,30.2,7.1,21.11,NW,321,15.4,19.7,37,0.00,,---,0.00,VWS V14.01,2013-03-24 21:33:00,
2013-03-24 15:38:00,30.0,6.3,21.11,WNW,300,13.2,13.2,36,0.00,,---,0.00,VWS V14.01,2013-03-24 21:38:00,
2013-03-24 15:44:00,29.7,6.0,21.11,NW,304,15.4,15.4,36,0.00,,---,0.00,VWS V14.01,2013-03-24 21:44:00,
2013-03-24 15:50:00,29.8,6.2,21.11,NW,322,15.9,17.4,36,0.00,,---,0.00,VWS V14.01,2013-03-24 21:50:00,
2013-03-24 15:55:00,29.5,6.4,21.11,NW,323,12.3,18.3,37,0.00,,---,0.00,VWS V14.01,2013-03-24 21:55:00,
2013-03-24 16:01:00,29.3,6.3,21.11,NW,322,17.4,22.8,37,0.00,,---,0.00,VWS V14.01,2013-03-24 22:01:00,
2013-03-24 16:07:00,29.1,6.7,21.11,NW,315,15.0,25.7,38,0.00,,---,0.00,VWS V14.01,2013-03-24 22:07:00,
2013-03-24 16:12:00,27.9,7.2,21.11,NW,309,22.4,24.6,41,0.00,,---,0.00,VWS V14.01,2013-03-24 22:12:00,
2013-03-24 16:17:00,27.9,7.2,21.11,WNW,300,26.6,28.4,41,0.00,,---,0.00,VWS V14.01,2013-03-24 22:17:00,
2013-03-24 16:23:00,27.9,7.2,21.11,NW,320,17.4,17.4,41,0.00,,---,0.00,VWS V14.01,2013-03-24 22:23:00,
2013-03-24 16:28:00,28.0,7.4,21.11,NW,317,17.4,25.5,41,0.00,,---,0.00,VWS V14.01,2013-03-24 22:28:00,
2013-03-24 16:33:00,27.9,7.2,21.11,NW,308,19.2,25.7,41,0.00,,---,0.00,VWS V14.01,2013-03-24 22:33:00,
2013-03-24 16:39:00,27.9,7.2,21.11,NW,321,25.1,25.1,41,0.00,,---,0.00,VWS V14.01,2013-03-24 22:39:00,
2013-03-24 16:44:00,28.0,7.4,21.11,NW,317,16.3,21.0,41,0.00,,---,0.00,VWS V14.01,2013-03-24 22:44:00,
2013-03-24 16:50:00,27.5,6.9,21.11,NW,316,15.9,15.9,41,0.00,,---,0.00,VWS V14.01,2013-03-24 22:50:00,
2013-03-24 16:55:00,27.5,6.9,21.11,NW,316,13.2,22.4,41,0.00,,---,0.00,VWS V14.01,2013-03-24 22:55:00,
2013-03-24 17:01:00,27.5,6.9,21.11,NW,315,16.3,16.3,41,0.00,,---,0.00,VWS V14.01,2013-03-24 23:01:00,
2013-03-24 17:07:00,27.9,7.2,21.11,WNW,300,25.7,25.7,41,0.00,,---,0.00,VWS V14.01,2013-03-24 23:07:00,
2013-03-24 17:12:00,27.9,5.0,21.11,WNW,301,15.4,19.2,37,0.00,,---,0.00,VWS V14.01,2013-03-24 23:12:00,
2013-03-24 17:18:00,27.9,3.8,21.11,NW,321,15.9,15.9,35,0.00,,---,0.00,VWS V14.01,2013-03-24 23:18:00,
2013-03-24 17:23:00,27.9,3.8,21.11,NW,305,24.6,24.6,35,0.00,,---,0.00,VWS V14.01,2013-03-24 23:23:00,
2013-03-24 17:29:00,27.9,3.8,21.11,NW,318,20.1,20.1,35,0.00,,---,0.00,VWS V14.01,2013-03-24 23:29:00,
2013-03-24 17:34:00,27.9,3.8,21.11,NW,311,23.7,23.7,35,0.00,,---,0.00,VWS V14.01,2013-03-24 23:34:00,
2013-03-24 17:40:00,27.3,3.3,21.11,NW,315,26.2,26.2,35,0.00,,---,0.00,VWS V14.01,2013-03-24 23:40:00,
2013-03-24 17:46:00,27.3,4.5,21.11,NNW,342,18.8,25.1,37,0.00,,---,0.00,VWS V14.01,2013-03-24 23:46:00,
2013-03-24 17:51:00,26.8,6.2,21.11,NW,326,17.4,17.4,41,0.00,,---,0.00,VWS V14.01,2013-03-24 23:51:00,
2013-03-24 17:57:00,25.3,5.5,21.11,NNW,328,26.6,26.6,42,0.00,,---,0.00,VWS V14.01,2013-03-24 23:57:00,
2013-03-24 18:03:00,24.8,5.5,21.11,NNW,329,20.6,23.3,43,0.00,,---,0.00,VWS V14.01,2013-03-25 00:03:00,
2013-03-24 18:08:00,24.4,5.2,21.11,NW,325,15.0,19.7,43,0.00,,---,0.00,VWS V14.01,2013-03-25 00:08:00,
2013-03-24 18:14:00,24.3,5.0,21.11,NNW,329,23.7,23.7,43,0.00,,---,0.00,VWS V14.01,2013-03-25 00:14:00,
2013-03-24 18:19:00,23.9,4.7,21.11,NNW,329,23.3,23.3,43,0.00,,---,0.00,VWS V14.01,2013-03-25 00:19:00,
2013-03-24 18:25:00,23.7,4.0,21.11,NNW,338,17.4,24.6,42,0.00,,---,0.00,VWS V14.01,2013-03-25 00:25:00,
2013-03-24 18:30:00,23.7,4.0,21.11,NW,306,27.1,27.1,42,0.00,,---,0.00,VWS V14.01,2013-03-25 00:30:00,
2013-03-24 18:36:00,23.5,3.3,21.11,NW,326,22.8,22.8,41,0.00,,---,0.00,VWS V14.01,2013-03-25 00:36:00,
2013-03-24 18:42:00,23.5,2.2,21.11,NNW,334,22.8,27.5,39,0.00,,---,0.00,VWS V14.01,2013-03-25 00:42:00,
2013-03-24 18:47:00,23.2,1.9,21.11,NW,312,15.4,15.4,39,0.00,,---,0.00,VWS V14.01,2013-03-25 00:47:00,
2013-03-24 18:53:00,22.8,1.6,21.11,NW,309,12.8,19.7,39,0.00,,---,0.00,VWS V14.01,2013-03-25 00:53:00,
2013-03-24 18:58:00,22.6,1.4,21.11,NW,321,14.5,16.8,39,0.00,,---,0.00,VWS V14.01,2013-03-25 00:58:00,
2013-03-24 19:04:00,22.3,1.1,21.11,NW,309,15.4,15.4,39,0.00,,---,0.00,VWS V14.01,2013-03-25 01:04:00,
2013-03-24 19:09:00,21.9,0.2,21.11,NNW,327,26.6,26.6,38,0.00,,---,0.00,VWS V14.01,2013-03-25 01:09:00,
2013-03-24 19:14:00,21.7,0.1,21.11,NW,317,21.5,21.5,38,0.00,,---,0.00,VWS V14.01,2013-03-25 01:14:00,
2013-03-24 19:19:00,21.6,-0.7,21.11,NW,305,20.1,20.1,37,0.00,,---,0.00,VWS V14.01,2013-03-25 01:19:00,
2013-03-24 19:25:00,21.4,-0.3,21.11,NW,321,15.0,17.0,38,0.00,,---,0.00,VWS V14.01,2013-03-25 01:25:00,
2013-03-24 19:30:00,21.0,0.0,21.11,NW,321,13.2,13.2,39,0.00,,---,0.00,VWS V14.01,2013-03-25 01:30:00,
2013-03-24 19:35:00,20.7,-0.4,21.11,NW,323,11.9,15.0,39,0.00,,---,0.00,VWS V14.01,2013-03-25 01:35:00,
2013-03-24 19:40:00,20.5,-0.5,21.11,NW,322,12.8,12.8,39,0.00,,---,0.00,VWS V14.01,2013-03-25 01:40:00,
2013-03-24 19:46:00,20.3,-0.2,21.11,NW,318,15.0,17.0,40,0.00,,---,0.00,VWS V14.01,2013-03-25 01:46:00,
2013-03-24 19:52:00,20.1,0.2,21.11,NNW,327,17.4,17.4,41,0.00,,---,0.00,VWS V14.01,2013-03-25 01:52:00,
2013-03-24 19:57:00,20.1,0.2,21.11,NW,321,17.0,17.0,41,0.00,,---,0.00,VWS V14.01,2013-03-25 01:57:00,
2013-03-24 20:03:00,19.9,0.0,21.11,NNW,328,19.7,19.7,41,0.00,,---,0.00,VWS V14.01,2013-03-25 02:03:00,
2013-03-24 20:08:00,19.9,0.0,21.11,NNW,333,19.7,19.7,41,0.00,,---,0.00,VWS V14.01,2013-03-25 02:08:00,
2013-03-24 20:14:00,19.6,-0.3,21.11,NW,324,17.4,17.9,41,0.00,,---,0.00,VWS V14.01,2013-03-25 02:14:00,
2013-03-24 20:20:00,19.4,0.1,21.11,NNW,332,16.8,17.4,42,0.00,,---,0.00,VWS V14.01,2013-03-25 02:20:00,
2013-03-24 20:25:00,19.2,0.4,21.11,NW,313,12.8,12.8,43,0.00,,---,0.00,VWS V14.01,2013-03-25 02:25:00,
2013-03-24 20:30:00,19.0,0.2,21.11,NW,326,11.9,11.9,43,0.00,,---,0.00,VWS V14.01,2013-03-25 02:30:00,
2013-03-24 20:35:00,18.7,-0.1,21.11,NNW,329,15.0,15.9,43,0.00,,---,0.00,VWS V14.01,2013-03-25 02:35:00,
2013-03-24 20:41:00,18.5,-0.3,21.11,NW,321,10.5,10.5,43,0.00,,---,0.00,VWS V14.01,2013-03-25 02:41:00,
2013-03-24 20:46:00,18.3,-0.4,21.11,NW,322,11.0,11.0,43,0.00,,---,0.00,VWS V14.01,2013-03-25 02:46:00,
2013-03-24 20:51:00,18.1,-0.6,21.11,NW,317,12.8,12.8,43,0.00,,---,0.00,VWS V14.01,2013-03-25 02:51:00,
2013-03-24 20:57:00,17.8,-0.4,21.11,NW,322,15.4,15.4,44,0.00,,---,0.00,VWS V14.01,2013-03-25 02:57:00,
2013-03-24 21:03:00,17.6,-0.6,21.11,NW,316,12.3,12.3,44,0.00,,---,0.00,VWS V14.01,2013-03-25 03:03:00,
2013-03-24 21:09:00,17.6,-0.6,21.11,NW,321,10.1,10.1,44,0.00,,---,0.00,VWS V14.01,2013-03-25 03:09:00,
2013-03-24 21:14:00,17.4,-0.8,21.11,NW,319,11.0,11.0,44,0.00,,---,0.00,VWS V14.01,2013-03-25 03:14:00,
2013-03-24 21:20:00,17.2,-0.4,21.11,NW,317,10.5,11.0,45,0.00,,---,0.00,VWS V14.01,2013-03-25 03:20:00,
2013-03-24 21:26:00,17.1,-0.6,21.11,NW,320,10.5,12.8,45,0.00,,---,0.00,VWS V14.01,2013-03-25 03:26:00,
2013-03-24 21:32:00,16.9,-0.8,21.11,NW,318,12.3,12.3,45,0.00,,---,0.00,VWS V14.01,2013-03-25 03:32:00,
2013-03-24 21:38:00,16.5,-1.1,21.11,NW,308,10.1,10.5,45,0.00,,---,0.00,VWS V14.01,2013-03-25 03:38:00,
2013-03-24 21:43:00,16.5,-1.1,21.11,NW,309,10.5,10.5,45,0.00,,---,0.00,VWS V14.01,2013-03-25 03:43:00,
2013-03-24 21:48:00,16.3,-1.3,21.11,WNW,299,14.5,14.5,45,0.00,,---,0.00,VWS V14.01,2013-03-25 03:48:00,
2013-03-24 21:53:00,16.3,-1.3,21.11,NW,309,13.2,13.2,45,0.00,,---,0.00,VWS V14.01,2013-03-25 03:53:00,
2013-03-24 21:59:00,16.3,-1.3,21.11,NW,310,15.0,15.0,45,0.00,,---,0.00,VWS V14.01,2013-03-25 03:59:00,
2013-03-24 22:00:00,16.3,-1.3,21.11,NW,312,11.0,15.0,45,0.00,,---,0.00,VWS V14.01,2013-03-25 04:00:00,
2013-03-24 22:01:00,16.3,-1.3,21.11,WNW,303,9.2,11.0,45,0.00,,---,0.00,VWS V14.01,2013-03-25 04:01:00,
2013-03-24 22:02:00,16.3,-1.3,21.11,NW,309,11.0,11.0,45,0.00,,---,0.00,VWS V14.01,2013-03-25 04:02:00,
2013-03-24 22:03:00,16.2,-1.4,21.11,NW,308,10.5,11.0,45,0.00,,---,0.00,VWS V14.01,2013-03-25 04:03:00,
2013-03-24 22:09:00,16.2,-1.4,21.11,NW,305,10.1,10.1,45,0.00,,---,0.00,VWS V14.01,2013-03-25 04:09:00,
2013-03-24 22:14:00,15.8,-1.8,21.11,NW,308,10.5,11.0,45,0.00,,---,0.00,VWS V14.01,2013-03-25 04:14:00,
2013-03-24 22:20:00,15.8,-1.3,21.11,NW,306,8.3,8.7,46,0.00,,---,0.00,VWS V14.01,2013-03-25 04:20:00,
2013-03-24 22:26:00,15.6,-1.5,21.11,NW,308,8.1,8.1,46,0.00,,---,0.00,VWS V14.01,2013-03-25 04:26:00,
2013-03-24 22:31:00,15.4,-1.6,21.11,NW,315,10.1,10.1,46,0.00,,---,0.00,VWS V14.01,2013-03-25 04:31:00,
2013-03-24 22:36:00,15.4,-1.6,21.11,NW,318,8.7,8.7,46,0.00,,---,0.00,VWS V14.01,2013-03-25 04:36:00,
2013-03-24 22:42:00,15.3,-1.8,21.11,NW,310,11.4,11.4,46,0.00,,---,0.00,VWS V14.01,2013-03-25 04:42:00,
2013-03-24 22:48:00,15.3,-1.8,21.11,NW,312,10.1,10.1,46,0.00,,---,0.00,VWS V14.01,2013-03-25 04:48:00,
2013-03-24 22:54:00,15.3,-1.8,21.11,NW,311,10.5,12.8,46,0.00,,---,0.00,VWS V14.01,2013-03-25 04:54:00,
2013-03-24 22:59:00,15.3,-1.3,21.11,NW,322,12.8,12.8,47,0.00,,---,0.00,VWS V14.01,2013-03-25 04:59:00,
2013-03-24 23:04:00,15.4,-1.2,21.11,WNW,303,12.8,12.8,47,0.00,,---,0.00,VWS V14.01,2013-03-25 05:04:00,
2013-03-24 23:09:00,15.4,-1.2,21.11,NW,307,9.2,9.2,47,0.00,,---,0.00,VWS V14.01,2013-03-25 05:09:00,
2013-03-24 23:15:00,15.6,-1.0,21.11,NW,316,15.0,15.0,47,0.00,,---,0.00,VWS V14.01,2013-03-25 05:15:00,
2013-03-24 23:20:00,15.6,-1.0,21.11,NW,314,15.4,15.4,47,0.00,,---,0.00,VWS V14.01,2013-03-25 05:20:00,
2013-03-24 23:26:00,15.8,-0.9,21.11,NW,316,13.6,13.6,47,0.00,,---,0.00,VWS V14.01,2013-03-25 05:26:00,
2013-03-24 23:32:00,15.8,-0.9,21.11,NW,315,13.2,13.2,47,0.00,,---,0.00,VWS V14.01,2013-03-25 05:32:00,
2013-03-24 23:38:00,15.6,-1.0,21.11,NW,312,12.8,13.2,47,0.00,,---,0.00,VWS V14.01,2013-03-25 05:38:00,
2013-03-24 23:44:00,15.4,-1.2,21.11,NW,317,11.0,13.2,47,0.00,,---,0.00,VWS V14.01,2013-03-25 05:44:00,
2013-03-24 23:49:00,15.4,-1.2,21.11,WNW,300,11.0,12.3,47,0.00,,---,0.00,VWS V14.01,2013-03-25 05:49:00,
2013-03-24 23:54:00,15.3,-0.9,21.11,NW,306,8.7,10.5,48,0.00,,---,0.00,VWS V14.01,2013-03-25 05:54:00,
2013-03-24 23:59:00,15.1,-1.1,21.11,NW,306,12.8,12.8,48,0.00,,---,0.00,VWS V14.01,2013-03-25 05:59:00,